sensor_id;sensor_type;location;lat;lon;timestamp;P1;P2;P0
12542;PMS3003;6337;49.556;25.594;2022-12-10T04:52:10;48.07;21.97;
12542;PMS3003;6337;49.556;25.594;2022-12-10T04:54:38;58.63;29.92;
12542;PMS3003;6337;49.556;25.594;2022-12-10T04:57:06;59.15;27.90;
12542;PMS3003;6337;49.556;25.594;2022-12-10T04:59:34;93.55;31.88;
12542;PMS3003;6337;49.556;25.594;2022-12-10T05:02:02;45.92;21.02;
12542;PMS3003;6337;49.556;25.594;2022-12-10T05:04:30;33.10;18.13;
12542;PMS3003;6337;49.556;25.594;2022-12-10T05:06:58;45.30;16.52;
12542;PMS3003;6337;49.556;25.594;2022-12-10T05:09:28;26.00;13.45;
12542;PMS3003;6337;49.556;25.594;2022-12-10T05:11:57;32.08;15.00;
12542;PMS3003;6337;49.556;25.594;2022-12-10T05:14:25;36.53;15.33;
12542;PMS3003;6337;49.556;25.594;2022-12-10T05:16:55;31.87;12.30;
12542;PMS3003;6337;49.556;25.594;2022-12-10T05:19:25;33.50;13.57;
12542;PMS3003;6337;49.556;25.594;2022-12-10T05:21:52;39.77;13.10;
12542;PMS3003;6337;49.556;25.594;2022-12-10T05:24:38;31.93;15.77;
12542;PMS3003;6337;49.556;25.594;2022-12-10T05:27:06;26.23;13.07;
12542;PMS3003;6337;49.556;25.594;2022-12-10T05:29:35;28.20;11.97;
12542;PMS3003;6337;49.556;25.594;2022-12-10T05:32:02;26.37;13.50;
12542;PMS3003;6337;49.556;25.594;2022-12-10T05:34:30;36.23;12.97;
12542;PMS3003;6337;49.556;25.594;2022-12-10T05:36:57;36.00;15.27;
12542;PMS3003;6337;49.556;25.594;2022-12-10T05:39:27;27.67;13.07;
12542;PMS3003;6337;49.556;25.594;2022-12-10T05:41:56;29.53;15.20;
12542;PMS3003;6337;49.556;25.594;2022-12-10T05:44:24;27.93;14.57;
12542;PMS3003;6337;49.556;25.594;2022-12-10T05:46:51;26.77;13.57;
12542;PMS3003;6337;49.556;25.594;2022-12-10T05:49:19;22.20;13.30;
12542;PMS3003;6337;49.556;25.594;2022-12-10T05:51:48;59.33;16.27;
12542;PMS3003;6337;49.556;25.594;2022-12-10T05:54:15;48.67;21.13;
12542;PMS3003;6337;49.556;25.594;2022-12-10T05:56:45;33.80;18.70;
12542;PMS3003;6337;49.556;25.594;2022-12-10T05:59:14;44.33;19.80;
12542;PMS3003;6337;49.556;25.594;2022-12-10T06:01:43;28.67;16.77;
12542;PMS3003;6337;49.556;25.594;2022-12-10T06:04:17;32.20;16.30;
12542;PMS3003;6337;49.556;25.594;2022-12-10T06:06:45;33.97;15.97;
12542;PMS3003;6337;49.556;25.594;2022-12-10T06:09:14;37.60;15.03;
12542;PMS3003;6337;49.556;25.594;2022-12-10T06:11:44;32.73;15.47;
12542;PMS3003;6337;49.556;25.594;2022-12-10T06:14:15;32.70;15.80;
12542;PMS3003;6337;49.556;25.594;2022-12-10T06:16:42;40.30;19.63;
12542;PMS3003;6337;49.556;25.594;2022-12-10T06:19:10;36.03;18.40;
12542;PMS3003;6337;49.556;25.594;2022-12-10T06:21:37;40.50;17.37;
12542;PMS3003;6337;49.556;25.594;2022-12-10T06:24:06;33.33;17.03;
12542;PMS3003;6337;49.556;25.594;2022-12-10T06:26:36;33.57;16.73;
12542;PMS3003;6337;49.556;25.594;2022-12-10T06:29:03;29.90;14.47;
12542;PMS3003;6337;49.556;25.594;2022-12-10T06:31:34;27.23;14.67;
12542;PMS3003;6337;49.556;25.594;2022-12-10T06:34:02;25.97;14.90;
12542;PMS3003;6337;49.556;25.594;2022-12-10T06:36:30;28.77;14.00;
12542;PMS3003;6337;49.556;25.594;2022-12-10T06:38:59;32.03;17.20;
12542;PMS3003;6337;49.556;25.594;2022-12-10T06:41:26;29.53;15.13;
12542;PMS3003;6337;49.556;25.594;2022-12-10T06:43:57;30.30;15.50;
12542;PMS3003;6337;49.556;25.594;2022-12-10T06:46:25;29.20;16.20;
12542;PMS3003;6337;49.556;25.594;2022-12-10T06:48:55;47.00;20.10;
12542;PMS3003;6337;49.556;25.594;2022-12-10T06:51:24;55.57;26.57;
12542;PMS3003;6337;49.556;25.594;2022-12-10T06:53:52;64.63;26.93;
12542;PMS3003;6337;49.556;25.594;2022-12-10T06:56:21;34.63;19.87;
12542;PMS3003;6337;49.556;25.594;2022-12-10T06:58:50;33.50;20.07;
12542;PMS3003;6337;49.556;25.594;2022-12-10T07:01:20;56.43;25.97;
12542;PMS3003;6337;49.556;25.594;2022-12-10T07:03:51;42.43;22.13;
12542;PMS3003;6337;49.556;25.594;2022-12-10T07:06:21;41.33;23.73;
12542;PMS3003;6337;49.556;25.594;2022-12-10T07:08:50;44.93;20.67;
12542;PMS3003;6337;49.556;25.594;2022-12-10T07:11:19;50.10;21.30;
12542;PMS3003;6337;49.556;25.594;2022-12-10T07:13:47;41.57;21.50;
12542;PMS3003;6337;49.556;25.594;2022-12-10T07:16:16;54.07;21.43;
12542;PMS3003;6337;49.556;25.594;2022-12-10T07:18:44;35.83;18.50;
12542;PMS3003;6337;49.556;25.594;2022-12-10T07:21:13;36.37;19.50;
12542;PMS3003;6337;49.556;25.594;2022-12-10T07:23:44;33.80;17.90;
12542;PMS3003;6337;49.556;25.594;2022-12-10T14:15:36;38.30;19.70;
12542;PMS3003;6337;49.556;25.594;2022-12-10T14:18:09;32.55;17.05;
12542;PMS3003;6337;49.556;25.594;2022-12-10T14:20:39;32.13;17.67;
12542;PMS3003;6337;49.556;25.594;2022-12-10T14:23:19;39.30;23.10;
12542;PMS3003;6337;49.556;25.594;2022-12-10T14:26:05;39.25;20.88;
12542;PMS3003;6337;49.556;25.594;2022-12-10T14:28:37;40.60;22.88;
12542;PMS3003;6337;49.556;25.594;2022-12-10T14:31:09;30.23;19.88;
12542;PMS3003;6337;49.556;25.594;2022-12-10T14:33:40;36.47;18.65;
12542;PMS3003;6337;49.556;25.594;2022-12-10T14:36:13;29.83;17.87;
12542;PMS3003;6337;49.556;25.594;2022-12-10T14:38:43;37.60;18.00;
12542;PMS3003;6337;49.556;25.594;2022-12-10T14:41:15;36.37;17.93;
12542;PMS3003;6337;49.556;25.594;2022-12-10T14:43:44;33.72;17.52;
12542;PMS3003;6337;49.556;25.594;2022-12-10T14:46:16;26.70;16.30;
12542;PMS3003;6337;49.556;25.594;2022-12-10T14:48:46;26.60;16.58;
12542;PMS3003;6337;49.556;25.594;2022-12-10T14:51:18;25.00;15.68;
12542;PMS3003;6337;49.556;25.594;2022-12-10T14:53:46;36.10;18.75;
12542;PMS3003;6337;49.556;25.594;2022-12-10T14:56:16;31.00;17.57;
12542;PMS3003;6337;49.556;25.594;2022-12-10T14:58:48;29.85;16.98;
12542;PMS3003;6337;49.556;25.594;2022-12-10T15:01:22;36.50;17.73;
12542;PMS3003;6337;49.556;25.594;2022-12-10T15:03:56;27.47;16.67;
12542;PMS3003;6337;49.556;25.594;2022-12-10T15:06:25;31.30;18.30;
12542;PMS3003;6337;49.556;25.594;2022-12-10T15:08:56;30.17;16.20;
12542;PMS3003;6337;49.556;25.594;2022-12-10T15:11:25;27.75;17.25;
12542;PMS3003;6337;49.556;25.594;2022-12-10T15:13:54;26.50;15.43;
12542;PMS3003;6337;49.556;25.594;2022-12-10T15:16:31;28.60;15.50;
12542;PMS3003;6337;49.556;25.594;2022-12-10T15:19:09;28.27;15.50;
12542;PMS3003;6337;49.556;25.594;2022-12-10T15:21:43;25.48;15.43;
12542;PMS3003;6337;49.556;25.594;2022-12-10T15:24:14;23.60;12.98;
12542;PMS3003;6337;49.556;25.594;2022-12-10T15:26:43;27.10;13.83;
12542;PMS3003;6337;49.556;25.594;2022-12-10T15:29:30;29.00;15.53;
12542;PMS3003;6337;49.556;25.594;2022-12-10T15:32:01;27.77;15.63;
12542;PMS3003;6337;49.556;25.594;2022-12-10T15:34:32;30.07;16.80;
12542;PMS3003;6337;49.556;25.594;2022-12-10T15:37:03;35.80;19.17;
12542;PMS3003;6337;49.556;25.594;2022-12-10T15:39:32;30.73;20.07;
12542;PMS3003;6337;49.556;25.594;2022-12-10T15:42:03;33.10;18.53;
12542;PMS3003;6337;49.556;25.594;2022-12-10T15:44:32;33.53;19.87;
12542;PMS3003;6337;49.556;25.594;2022-12-10T15:47:08;33.30;17.33;
12542;PMS3003;6337;49.556;25.594;2022-12-10T15:49:36;60.60;27.53;
12542;PMS3003;6337;49.556;25.594;2022-12-10T15:52:04;59.93;34.50;
12542;PMS3003;6337;49.556;25.594;2022-12-10T15:54:32;34.40;21.30;
12542;PMS3003;6337;49.556;25.594;2022-12-10T15:57:01;24.90;15.80;
12542;PMS3003;6337;49.556;25.594;2022-12-10T15:59:31;18.33;12.33;
12542;PMS3003;6337;49.556;25.594;2022-12-10T16:02:01;27.10;13.73;
12542;PMS3003;6337;49.556;25.594;2022-12-10T16:04:33;20.80;12.77;
12542;PMS3003;6337;49.556;25.594;2022-12-10T16:07:01;27.73;14.00;
12542;PMS3003;6337;49.556;25.594;2022-12-10T16:09:30;25.77;13.23;
12542;PMS3003;6337;49.556;25.594;2022-12-10T16:11:58;22.70;12.90;
12542;PMS3003;6337;49.556;25.594;2022-12-10T16:14:27;39.23;13.60;
12542;PMS3003;6337;49.556;25.594;2022-12-10T16:16:55;28.70;14.57;
12542;PMS3003;6337;49.556;25.594;2022-12-10T16:19:23;25.87;17.27;
12542;PMS3003;6337;49.556;25.594;2022-12-10T16:21:52;27.30;16.97;
12542;PMS3003;6337;49.556;25.594;2022-12-10T16:24:19;28.17;16.00;
12542;PMS3003;6337;49.556;25.594;2022-12-10T16:26:47;27.00;15.10;
12542;PMS3003;6337;49.556;25.594;2022-12-10T16:29:16;29.80;16.63;
12542;PMS3003;6337;49.556;25.594;2022-12-10T16:31:45;31.20;16.00;
12542;PMS3003;6337;49.556;25.594;2022-12-10T16:34:13;31.93;13.40;
12542;PMS3003;6337;49.556;25.594;2022-12-10T16:36:40;24.37;14.73;
12542;PMS3003;6337;49.556;25.594;2022-12-10T16:39:09;23.03;11.93;
12542;PMS3003;6337;49.556;25.594;2022-12-10T16:41:39;20.47;13.17;
12542;PMS3003;6337;49.556;25.594;2022-12-10T16:44:07;22.53;13.30;
12542;PMS3003;6337;49.556;25.594;2022-12-10T16:46:34;24.43;13.37;
12542;PMS3003;6337;49.556;25.594;2022-12-10T16:49:02;23.07;11.57;
12542;PMS3003;6337;49.556;25.594;2022-12-10T16:51:30;20.10;9.80;
12542;PMS3003;6337;49.556;25.594;2022-12-10T16:53:58;25.23;11.40;
12542;PMS3003;6337;49.556;25.594;2022-12-10T16:56:27;19.70;12.17;
12542;PMS3003;6337;49.556;25.594;2022-12-10T16:58:54;21.87;11.37;
12542;PMS3003;6337;49.556;25.594;2022-12-10T17:01:23;23.90;14.97;
12542;PMS3003;6337;49.556;25.594;2022-12-10T17:03:52;25.70;14.13;
12542;PMS3003;6337;49.556;25.594;2022-12-10T17:06:21;23.80;12.17;
12542;PMS3003;6337;49.556;25.594;2022-12-10T17:08:49;18.63;10.90;
12542;PMS3003;6337;49.556;25.594;2022-12-10T17:11:19;21.67;12.90;
12542;PMS3003;6337;49.556;25.594;2022-12-10T17:14:09;33.10;12.67;
12542;PMS3003;6337;49.556;25.594;2022-12-10T17:16:42;18.63;11.70;
12542;PMS3003;6337;49.556;25.594;2022-12-10T17:19:10;26.60;11.80;
12542;PMS3003;6337;49.556;25.594;2022-12-10T17:21:38;27.80;17.30;
12542;PMS3003;6337;49.556;25.594;2022-12-10T17:24:06;18.33;12.93;
12542;PMS3003;6337;49.556;25.594;2022-12-10T17:26:38;23.90;12.10;
12542;PMS3003;6337;49.556;25.594;2022-12-10T17:29:13;14.60;8.40;
12542;PMS3003;6337;49.556;25.594;2022-12-10T17:31:44;13.93;9.17;
12542;PMS3003;6337;49.556;25.594;2022-12-10T17:34:12;11.73;8.10;
12542;PMS3003;6337;49.556;25.594;2022-12-10T17:36:40;15.57;10.50;
12542;PMS3003;6337;49.556;25.594;2022-12-10T17:39:10;15.83;9.17;
12542;PMS3003;6337;49.556;25.594;2022-12-10T17:41:39;66.90;35.00;
12542;PMS3003;6337;49.556;25.594;2022-12-10T17:44:06;16.17;9.63;
12542;PMS3003;6337;49.556;25.594;2022-12-10T17:46:36;17.17;9.00;
12542;PMS3003;6337;49.556;25.594;2022-12-10T17:49:09;11.60;8.23;
12542;PMS3003;6337;49.556;25.594;2022-12-10T17:51:38;12.63;8.18;
12542;PMS3003;6337;49.556;25.594;2022-12-10T17:54:07;13.30;8.67;
12542;PMS3003;6337;49.556;25.594;2022-12-10T17:56:34;11.90;7.90;
12542;PMS3003;6337;49.556;25.594;2022-12-10T17:59:04;15.02;7.32;
12542;PMS3003;6337;49.556;25.594;2022-12-10T18:01:32;14.85;8.98;
12542;PMS3003;6337;49.556;25.594;2022-12-10T18:04:01;16.30;8.87;
12542;PMS3003;6337;49.556;25.594;2022-12-10T18:06:32;13.37;8.80;
12542;PMS3003;6337;49.556;25.594;2022-12-10T18:09:00;14.87;9.97;
12542;PMS3003;6337;49.556;25.594;2022-12-10T18:11:29;27.77;10.17;
12542;PMS3003;6337;49.556;25.594;2022-12-10T18:13:58;24.60;12.40;
12542;PMS3003;6337;49.556;25.594;2022-12-10T18:16:26;25.03;12.33;
12542;PMS3003;6337;49.556;25.594;2022-12-10T18:18:57;28.13;12.13;
12542;PMS3003;6337;49.556;25.594;2022-12-10T18:21:28;20.23;12.80;
12542;PMS3003;6337;49.556;25.594;2022-12-10T18:23:56;25.40;13.80;
12542;PMS3003;6337;49.556;25.594;2022-12-10T18:26:24;21.10;11.80;
12542;PMS3003;6337;49.556;25.594;2022-12-10T18:28:53;26.35;13.57;
12542;PMS3003;6337;49.556;25.594;2022-12-10T18:31:22;20.17;14.33;
12542;PMS3003;6337;49.556;25.594;2022-12-10T18:33:51;16.50;9.30;
12542;PMS3003;6337;49.556;25.594;2022-12-10T18:36:21;20.25;9.30;
12542;PMS3003;6337;49.556;25.594;2022-12-10T18:38:53;18.27;11.40;
12542;PMS3003;6337;49.556;25.594;2022-12-10T18:41:20;15.63;11.07;
12542;PMS3003;6337;49.556;25.594;2022-12-10T18:43:49;26.17;12.37;
12542;PMS3003;6337;49.556;25.594;2022-12-10T18:46:24;17.60;10.57;
12542;PMS3003;6337;49.556;25.594;2022-12-10T18:48:52;14.67;9.90;
12542;PMS3003;6337;49.556;25.594;2022-12-10T18:51:22;14.73;9.25;
12542;PMS3003;6337;49.556;25.594;2022-12-10T18:53:49;16.77;8.60;
12542;PMS3003;6337;49.556;25.594;2022-12-10T18:56:19;13.17;7.83;
12542;PMS3003;6337;49.556;25.594;2022-12-10T18:58:48;12.48;8.00;
12542;PMS3003;6337;49.556;25.594;2022-12-10T19:01:17;18.92;10.02;
12542;PMS3003;6337;49.556;25.594;2022-12-10T19:03:46;13.57;8.05;
12542;PMS3003;6337;49.556;25.594;2022-12-10T19:06:14;18.02;9.68;
12542;PMS3003;6337;49.556;25.594;2022-12-10T19:08:42;16.90;8.07;
12542;PMS3003;6337;49.556;25.594;2022-12-10T19:11:10;12.30;8.00;
12542;PMS3003;6337;49.556;25.594;2022-12-10T19:13:41;14.97;8.60;
12542;PMS3003;6337;49.556;25.594;2022-12-10T19:16:09;9.47;6.77;
12542;PMS3003;6337;49.556;25.594;2022-12-10T23:49:44;15.90;6.00;
12542;PMS3003;6337;49.556;25.594;2022-12-10T23:52:11;8.93;6.93;
12542;PMS3003;6337;49.556;25.594;2022-12-10T23:54:41;10.63;6.18;
12542;PMS3003;6337;49.556;25.594;2022-12-10T23:57:09;8.85;6.50;
12542;PMS3003;6337;49.556;25.594;2022-12-10T23:59:36;9.90;6.95;
